sensor_id;sensor_type;location;lat;lon;timestamp;P1;durP1;ratioP1;P2;durP2;ratioP2
50585;SDS011;36542;51.700;8.846;2023-07-29T00:01:19;6.60;;;3.67;;
50585;SDS011;36542;51.700;8.846;2023-07-29T00:03:45;4.90;;;3.97;;
50585;SDS011;36542;51.700;8.846;2023-07-29T00:06:10;5.47;;;4.27;;
50585;SDS011;36542;51.700;8.846;2023-07-29T00:08:36;4.83;;;4.43;;
50585;SDS011;36542;51.700;8.846;2023-07-29T00:11:01;7.03;;;4.00;;
50585;SDS011;36542;51.700;8.846;2023-07-29T00:13:27;5.00;;;3.53;;
50585;SDS011;36542;51.700;8.846;2023-07-29T00:15:53;5.07;;;4.07;;
50585;SDS011;36542;51.700;8.846;2023-07-29T00:18:23;5.27;;;4.13;;
50585;SDS011;36542;51.700;8.846;2023-07-29T00:20:49;4.53;;;3.60;;
50585;SDS011;36542;51.700;8.846;2023-07-29T00:23:16;5.30;;;3.60;;
50585;SDS011;36542;51.700;8.846;2023-07-29T00:25:44;3.77;;;3.40;;
50585;SDS011;36542;51.700;8.846;2023-07-29T00:28:09;10.30;;;3.50;;
50585;SDS011;36542;51.700;8.846;2023-07-29T00:30:36;4.70;;;3.87;;
50585;SDS011;36542;51.700;8.846;2023-07-29T00:33:01;4.07;;;3.33;;
50585;SDS011;36542;51.700;8.846;2023-07-29T00:35:27;3.47;;;3.17;;
50585;SDS011;36542;51.700;8.846;2023-07-29T00:37:52;3.60;;;3.30;;
50585;SDS011;36542;51.700;8.846;2023-07-29T00:40:21;3.63;;;3.20;;
50585;SDS011;36542;51.700;8.846;2023-07-29T00:42:47;4.43;;;3.00;;
50585;SDS011;36542;51.700;8.846;2023-07-29T00:45:14;5.33;;;3.27;;
50585;SDS011;36542;51.700;8.846;2023-07-29T00:47:40;4.63;;;2.93;;
50585;SDS011;36542;51.700;8.846;2023-07-29T00:50:07;3.47;;;3.10;;
50585;SDS011;36542;51.700;8.846;2023-07-29T00:52:36;4.77;;;2.80;;
50585;SDS011;36542;51.700;8.846;2023-07-29T00:55:01;3.37;;;3.03;;
50585;SDS011;36542;51.700;8.846;2023-07-29T00:57:27;3.73;;;3.00;;
50585;SDS011;36542;51.700;8.846;2023-07-29T00:59:54;4.93;;;2.73;;
50585;SDS011;36542;51.700;8.846;2023-07-29T01:02:21;3.33;;;3.03;;
50585;SDS011;36542;51.700;8.846;2023-07-29T01:04:51;5.83;;;3.00;;
50585;SDS011;36542;51.700;8.846;2023-07-29T01:07:23;4.50;;;3.33;;
50585;SDS011;36542;51.700;8.846;2023-07-29T01:15:22;3.70;;;3.40;;
50585;SDS011;36542;51.700;8.846;2023-07-29T01:17:59;4.67;;;3.20;;
50585;SDS011;36542;51.700;8.846;2023-07-29T01:20:33;3.43;;;3.13;;
50585;SDS011;36542;51.700;8.846;2023-07-29T01:23:02;5.13;;;3.40;;
50585;SDS011;36542;51.700;8.846;2023-07-29T01:25:28;5.60;;;3.60;;
50585;SDS011;36542;51.700;8.846;2023-07-29T01:27:53;4.67;;;3.50;;
50585;SDS011;36542;51.700;8.846;2023-07-29T01:30:20;5.47;;;3.90;;
50585;SDS011;36542;51.700;8.846;2023-07-29T01:35:24;5.67;;;4.10;;
50585;SDS011;36542;51.700;8.846;2023-07-29T01:38:06;8.23;;;5.53;;
50585;SDS011;36542;51.700;8.846;2023-07-29T01:40:37;5.40;;;4.90;;
50585;SDS011;36542;51.700;8.846;2023-07-29T01:43:04;8.00;;;5.67;;
50585;SDS011;36542;51.700;8.846;2023-07-29T01:45:32;7.27;;;5.90;;
50585;SDS011;36542;51.700;8.846;2023-07-29T01:48:01;7.57;;;6.03;;
50585;SDS011;36542;51.700;8.846;2023-07-29T01:50:26;6.47;;;5.87;;
50585;SDS011;36542;51.700;8.846;2023-07-29T01:52:52;5.87;;;5.37;;
50585;SDS011;36542;51.700;8.846;2023-07-29T01:55:17;6.90;;;5.47;;
50585;SDS011;36542;51.700;8.846;2023-07-29T01:57:43;6.17;;;5.60;;
50585;SDS011;36542;51.700;8.846;2023-07-29T02:00:09;7.07;;;5.33;;
50585;SDS011;36542;51.700;8.846;2023-07-29T02:02:35;6.80;;;5.00;;
50585;SDS011;36542;51.700;8.846;2023-07-29T02:05:01;5.97;;;5.37;;
50585;SDS011;36542;51.700;8.846;2023-07-29T02:07:26;6.50;;;5.23;;
50585;SDS011;36542;51.700;8.846;2023-07-29T02:09:52;6.90;;;5.03;;
50585;SDS011;36542;51.700;8.846;2023-07-29T02:12:18;7.33;;;5.47;;
50585;SDS011;36542;51.700;8.846;2023-07-29T02:14:43;6.53;;;5.27;;
50585;SDS011;36542;51.700;8.846;2023-07-29T02:17:09;4.90;;;4.40;;
50585;SDS011;36542;51.700;8.846;2023-07-29T02:19:34;10.93;;;5.40;;
50585;SDS011;36542;51.700;8.846;2023-07-29T02:22:00;9.10;;;4.97;;
50585;SDS011;36542;51.700;8.846;2023-07-29T02:24:26;5.93;;;5.10;;
50585;SDS011;36542;51.700;8.846;2023-07-29T02:26:51;9.47;;;5.20;;
50585;SDS011;36542;51.700;8.846;2023-07-29T02:29:17;11.73;;;5.57;;
50585;SDS011;36542;51.700;8.846;2023-07-29T02:31:42;9.07;;;5.70;;
50585;SDS011;36542;51.700;8.846;2023-07-29T02:34:09;7.40;;;5.60;;
50585;SDS011;36542;51.700;8.846;2023-07-29T02:36:34;8.90;;;5.10;;
50585;SDS011;36542;51.700;8.846;2023-07-29T02:39:00;6.43;;;5.50;;
50585;SDS011;36542;51.700;8.846;2023-07-29T02:41:25;8.70;;;5.30;;
50585;SDS011;36542;51.700;8.846;2023-07-29T02:43:51;8.10;;;5.30;;
50585;SDS011;36542;51.700;8.846;2023-07-29T02:46:17;10.30;;;5.10;;
50585;SDS011;36542;51.700;8.846;2023-07-29T02:48:43;6.47;;;4.43;;
50585;SDS011;36542;51.700;8.846;2023-07-29T02:51:09;5.30;;;4.87;;
50585;SDS011;36542;51.700;8.846;2023-07-29T02:53:34;5.50;;;5.00;;
50585;SDS011;36542;51.700;8.846;2023-07-29T02:56:01;6.67;;;4.67;;
50585;SDS011;36542;51.700;8.846;2023-07-29T02:58:28;6.30;;;5.20;;
50585;SDS011;36542;51.700;8.846;2023-07-29T03:00:59;5.27;;;4.80;;
50585;SDS011;36542;51.700;8.846;2023-07-29T03:03:26;7.00;;;5.33;;
50585;SDS011;36542;51.700;8.846;2023-07-29T03:05:57;7.73;;;4.40;;
50585;SDS011;36542;51.700;8.846;2023-07-29T03:08:32;6.97;;;4.77;;
50585;SDS011;36542;51.700;8.846;2023-07-29T03:10:57;6.33;;;4.50;;
50585;SDS011;36542;51.700;8.846;2023-07-29T03:13:23;6.87;;;4.93;;
50585;SDS011;36542;51.700;8.846;2023-07-29T03:15:49;6.23;;;4.80;;
50585;SDS011;36542;51.700;8.846;2023-07-29T03:18:15;6.77;;;4.80;;
50585;SDS011;36542;51.700;8.846;2023-07-29T03:20:40;7.23;;;5.13;;
50585;SDS011;36542;51.700;8.846;2023-07-29T03:23:06;6.03;;;4.47;;
50585;SDS011;36542;51.700;8.846;2023-07-29T03:25:32;7.43;;;4.33;;
50585;SDS011;36542;51.700;8.846;2023-07-29T03:27:58;7.07;;;4.60;;
50585;SDS011;36542;51.700;8.846;2023-07-29T03:30:23;5.60;;;4.23;;
50585;SDS011;36542;51.700;8.846;2023-07-29T03:32:49;8.03;;;5.03;;
50585;SDS011;36542;51.700;8.846;2023-07-29T03:35:15;6.27;;;4.20;;
50585;SDS011;36542;51.700;8.846;2023-07-29T03:37:41;6.33;;;4.93;;
50585;SDS011;36542;51.700;8.846;2023-07-29T03:40:07;7.53;;;5.00;;
50585;SDS011;36542;51.700;8.846;2023-07-29T03:42:34;7.23;;;5.70;;
50585;SDS011;36542;51.700;8.846;2023-07-29T03:44:59;9.23;;;5.77;;
50585;SDS011;36542;51.700;8.846;2023-07-29T03:47:25;7.87;;;5.43;;
50585;SDS011;36542;51.700;8.846;2023-07-29T03:49:50;6.83;;;5.80;;
50585;SDS011;36542;51.700;8.846;2023-07-29T03:52:16;7.23;;;5.33;;
50585;SDS011;36542;51.700;8.846;2023-07-29T03:54:41;6.63;;;5.40;;
50585;SDS011;36542;51.700;8.846;2023-07-29T03:57:07;5.00;;;4.50;;
50585;SDS011;36542;51.700;8.846;2023-07-29T03:59:32;7.50;;;5.13;;
50585;SDS011;36542;51.700;8.846;2023-07-29T04:01:58;7.07;;;5.07;;
50585;SDS011;36542;51.700;8.846;2023-07-29T04:04:24;8.30;;;5.37;;
50585;SDS011;36542;51.700;8.846;2023-07-29T04:06:49;5.83;;;5.20;;
50585;SDS011;36542;51.700;8.846;2023-07-29T04:09:15;5.30;;;4.80;;
50585;SDS011;36542;51.700;8.846;2023-07-29T04:11:40;6.70;;;5.03;;
50585;SDS011;36542;51.700;8.846;2023-07-29T04:14:06;7.97;;;5.17;;
50585;SDS011;36542;51.700;8.846;2023-07-29T04:16:31;7.43;;;5.30;;
50585;SDS011;36542;51.700;8.846;2023-07-29T04:18:57;8.13;;;5.53;;
50585;SDS011;36542;51.700;8.846;2023-07-29T04:21:22;7.23;;;5.30;;
50585;SDS011;36542;51.700;8.846;2023-07-29T04:23:48;5.87;;;5.00;;
50585;SDS011;36542;51.700;8.846;2023-07-29T04:26:13;6.73;;;4.77;;
50585;SDS011;36542;51.700;8.846;2023-07-29T04:28:39;5.43;;;4.93;;
50585;SDS011;36542;51.700;8.846;2023-07-29T04:31:04;6.30;;;5.43;;
50585;SDS011;36542;51.700;8.846;2023-07-29T04:33:30;5.80;;;5.30;;
50585;SDS011;36542;51.700;8.846;2023-07-29T04:35:56;6.17;;;4.90;;
50585;SDS011;36542;51.700;8.846;2023-07-29T04:38:24;9.57;;;4.60;;
50585;SDS011;36542;51.700;8.846;2023-07-29T04:40:55;4.90;;;4.50;;
50585;SDS011;36542;51.700;8.846;2023-07-29T04:43:21;6.03;;;4.50;;
50585;SDS011;36542;51.700;8.846;2023-07-29T04:45:46;5.17;;;4.67;;
50585;SDS011;36542;51.700;8.846;2023-07-29T04:48:11;5.20;;;4.70;;
50585;SDS011;36542;51.700;8.846;2023-07-29T04:50:37;5.47;;;3.80;;
50585;SDS011;36542;51.700;8.846;2023-07-29T04:53:02;7.03;;;4.60;;
50585;SDS011;36542;51.700;8.846;2023-07-29T04:55:28;8.90;;;4.80;;
50585;SDS011;36542;51.700;8.846;2023-07-29T04:57:54;4.60;;;4.20;;
50585;SDS011;36542;51.700;8.846;2023-07-29T05:00:19;4.20;;;3.80;;
50585;SDS011;36542;51.700;8.846;2023-07-29T05:02:45;3.77;;;3.47;;
50585;SDS011;36542;51.700;8.846;2023-07-29T05:05:10;4.77;;;3.80;;
50585;SDS011;36542;51.700;8.846;2023-07-29T05:07:36;4.63;;;4.23;;
50585;SDS011;36542;51.700;8.846;2023-07-29T05:10:02;4.83;;;4.33;;
50585;SDS011;36542;51.700;8.846;2023-07-29T05:12:27;4.60;;;4.20;;
50585;SDS011;36542;51.700;8.846;2023-07-29T05:14:54;4.90;;;4.50;;
50585;SDS011;36542;51.700;8.846;2023-07-29T05:17:19;4.60;;;4.20;;
50585;SDS011;36542;51.700;8.846;2023-07-29T05:19:45;4.30;;;3.40;;
50585;SDS011;36542;51.700;8.846;2023-07-29T05:22:11;6.20;;;3.67;;
50585;SDS011;36542;51.700;8.846;2023-07-29T05:24:37;3.80;;;3.50;;
50585;SDS011;36542;51.700;8.846;2023-07-29T05:27:02;3.73;;;3.43;;
50585;SDS011;36542;51.700;8.846;2023-07-29T05:29:28;3.43;;;3.13;;
50585;SDS011;36542;51.700;8.846;2023-07-29T05:31:54;3.03;;;2.83;;
50585;SDS011;36542;51.700;8.846;2023-07-29T05:34:20;3.23;;;2.43;;
50585;SDS011;36542;51.700;8.846;2023-07-29T05:36:45;2.90;;;2.70;;
50585;SDS011;36542;51.700;8.846;2023-07-29T05:39:11;2.77;;;2.57;;
50585;SDS011;36542;51.700;8.846;2023-07-29T05:41:37;3.47;;;3.17;;
50585;SDS011;36542;51.700;8.846;2023-07-29T05:44:02;3.07;;;2.70;;
50585;SDS011;36542;51.700;8.846;2023-07-29T05:46:28;2.70;;;2.47;;
50585;SDS011;36542;51.700;8.846;2023-07-29T05:48:53;2.70;;;2.50;;
50585;SDS011;36542;51.700;8.846;2023-07-29T05:51:19;2.70;;;2.50;;
50585;SDS011;36542;51.700;8.846;2023-07-29T05:53:45;2.90;;;2.70;;
50585;SDS011;36542;51.700;8.846;2023-07-29T05:56:10;2.60;;;2.40;;
50585;SDS011;36542;51.700;8.846;2023-07-29T05:58:36;3.00;;;2.80;;
50585;SDS011;36542;51.700;8.846;2023-07-29T06:01:01;2.50;;;2.30;;
50585;SDS011;36542;51.700;8.846;2023-07-29T06:03:27;3.50;;;2.83;;
50585;SDS011;36542;51.700;8.846;2023-07-29T06:05:53;3.07;;;2.87;;
50585;SDS011;36542;51.700;8.846;2023-07-29T06:08:19;3.23;;;2.80;;
50585;SDS011;36542;51.700;8.846;2023-07-29T06:10:44;3.63;;;3.33;;
50585;SDS011;36542;51.700;8.846;2023-07-29T06:13:10;3.90;;;3.50;;
50585;SDS011;36542;51.700;8.846;2023-07-29T06:15:35;4.00;;;3.60;;
50585;SDS011;36542;51.700;8.846;2023-07-29T06:18:01;3.70;;;3.40;;
50585;SDS011;36542;51.700;8.846;2023-07-29T06:20:26;5.53;;;3.47;;
50585;SDS011;36542;51.700;8.846;2023-07-29T06:22:52;3.83;;;3.43;;
50585;SDS011;36542;51.700;8.846;2023-07-29T06:25:17;3.57;;;3.10;;
50585;SDS011;36542;51.700;8.846;2023-07-29T06:27:43;4.40;;;3.60;;
50585;SDS011;36542;51.700;8.846;2023-07-29T06:30:08;3.13;;;2.93;;
50585;SDS011;36542;51.700;8.846;2023-07-29T06:32:34;3.40;;;3.10;;
50585;SDS011;36542;51.700;8.846;2023-07-29T06:35:00;3.27;;;2.93;;
50585;SDS011;36542;51.700;8.846;2023-07-29T06:37:25;3.90;;;3.50;;
50585;SDS011;36542;51.700;8.846;2023-07-29T06:39:51;3.33;;;3.03;;
50585;SDS011;36542;51.700;8.846;2023-07-29T06:42:16;3.93;;;3.10;;
50585;SDS011;36542;51.700;8.846;2023-07-29T06:44:42;4.33;;;4.00;;
50585;SDS011;36542;51.700;8.846;2023-07-29T06:47:08;3.80;;;3.50;;
50585;SDS011;36542;51.700;8.846;2023-07-29T06:49:33;6.13;;;4.00;;
50585;SDS011;36542;51.700;8.846;2023-07-29T06:51:58;4.17;;;3.87;;
50585;SDS011;36542;51.700;8.846;2023-07-29T06:54:24;3.40;;;2.70;;
50585;SDS011;36542;51.700;8.846;2023-07-29T06:56:53;3.50;;;3.20;;
50585;SDS011;36542;51.700;8.846;2023-07-29T06:59:18;3.40;;;3.10;;
50585;SDS011;36542;51.700;8.846;2023-07-29T07:01:44;3.60;;;3.30;;
50585;SDS011;36542;51.700;8.846;2023-07-29T07:04:09;3.20;;;2.90;;
50585;SDS011;36542;51.700;8.846;2023-07-29T07:06:35;3.53;;;3.23;;
50585;SDS011;36542;51.700;8.846;2023-07-29T07:09:00;4.97;;;3.70;;
50585;SDS011;36542;51.700;8.846;2023-07-29T07:11:26;5.47;;;3.73;;
50585;SDS011;36542;51.700;8.846;2023-07-29T07:13:51;4.07;;;3.77;;
50585;SDS011;36542;51.700;8.846;2023-07-29T07:16:17;5.17;;;4.20;;
50585;SDS011;36542;51.700;8.846;2023-07-29T07:18:43;4.87;;;4.47;;
50585;SDS011;36542;51.700;8.846;2023-07-29T07:21:08;6.70;;;4.63;;
50585;SDS011;36542;51.700;8.846;2023-07-29T07:23:35;7.60;;;5.10;;
50585;SDS011;36542;51.700;8.846;2023-07-29T07:26:00;6.43;;;5.03;;
50585;SDS011;36542;51.700;8.846;2023-07-29T07:28:26;6.40;;;5.80;;
50585;SDS011;36542;51.700;8.846;2023-07-29T07:30:51;5.73;;;5.23;;
50585;SDS011;36542;51.700;8.846;2023-07-29T07:33:17;5.77;;;5.20;;
50585;SDS011;36542;51.700;8.846;2023-07-29T07:35:42;7.00;;;6.40;;
50585;SDS011;36542;51.700;8.846;2023-07-29T07:38:08;8.27;;;6.77;;
50585;SDS011;36542;51.700;8.846;2023-07-29T07:40:35;8.23;;;7.30;;
50585;SDS011;36542;51.700;8.846;2023-07-29T07:43:01;8.33;;;7.53;;
50585;SDS011;36542;51.700;8.846;2023-07-29T07:45:27;13.00;;;8.57;;
50585;SDS011;36542;51.700;8.846;2023-07-29T07:47:52;10.13;;;9.13;;
50585;SDS011;36542;51.700;8.846;2023-07-29T07:50:20;14.13;;;12.00;;
50585;SDS011;36542;51.700;8.846;2023-07-29T07:52:46;19.20;;;13.07;;
50585;SDS011;36542;51.700;8.846;2023-07-29T07:55:12;15.87;;;12.43;;
50585;SDS011;36542;51.700;8.846;2023-07-29T07:57:37;18.07;;;14.73;;
50585;SDS011;36542;51.700;8.846;2023-07-29T08:00:03;17.53;;;14.70;;
50585;SDS011;36542;51.700;8.846;2023-07-29T08:02:29;16.53;;;14.27;;
50585;SDS011;36542;51.700;8.846;2023-07-29T08:04:55;16.27;;;14.47;;
50585;SDS011;36542;51.700;8.846;2023-07-29T08:07:20;16.20;;;14.60;;
50585;SDS011;36542;51.700;8.846;2023-07-29T08:09:46;16.93;;;14.10;;
50585;SDS011;36542;51.700;8.846;2023-07-29T08:12:11;18.27;;;14.67;;
50585;SDS011;36542;51.700;8.846;2023-07-29T08:14:37;17.80;;;15.90;;
50585;SDS011;36542;51.700;8.846;2023-07-29T08:17:02;18.17;;;16.17;;
50585;SDS011;36542;51.700;8.846;2023-07-29T08:19:28;25.07;;;17.77;;
50585;SDS011;36542;51.700;8.846;2023-07-29T08:21:54;21.47;;;18.57;;
50585;SDS011;36542;51.700;8.846;2023-07-29T08:24:19;23.33;;;19.27;;
50585;SDS011;36542;51.700;8.846;2023-07-29T08:26:45;23.70;;;18.47;;
50585;SDS011;36542;51.700;8.846;2023-07-29T08:29:10;23.87;;;18.60;;
50585;SDS011;36542;51.700;8.846;2023-07-29T08:31:37;23.67;;;19.73;;
50585;SDS011;36542;51.700;8.846;2023-07-29T08:34:02;18.97;;;16.97;;
50585;SDS011;36542;51.700;8.846;2023-07-29T08:36:28;20.00;;;15.97;;
50585;SDS011;36542;51.700;8.846;2023-07-29T08:38:53;19.37;;;17.27;;
50585;SDS011;36542;51.700;8.846;2023-07-29T08:41:26;16.77;;;14.93;;
50585;SDS011;36542;51.700;8.846;2023-07-29T08:44:10;15.73;;;14.07;;
50585;SDS011;36542;51.700;8.846;2023-07-29T08:46:43;15.87;;;14.30;;
50585;SDS011;36542;51.700;8.846;2023-07-29T08:49:09;15.67;;;13.97;;
50585;SDS011;36542;51.700;8.846;2023-07-29T08:51:38;14.97;;;13.43;;
50585;SDS011;36542;51.700;8.846;2023-07-29T08:54:06;14.03;;;12.63;;
50585;SDS011;36542;51.700;8.846;2023-07-29T08:56:32;14.00;;;12.37;;
50585;SDS011;36542;51.700;8.846;2023-07-29T08:58:58;12.43;;;11.30;;
50585;SDS011;36542;51.700;8.846;2023-07-29T09:01:27;12.50;;;11.27;;
50585;SDS011;36542;51.700;8.846;2023-07-29T09:03:52;16.95;;;12.63;;
50585;SDS011;36542;51.700;8.846;2023-07-29T09:06:18;14.50;;;13.00;;
50585;SDS011;36542;51.700;8.846;2023-07-29T09:08:45;13.38;;;12.07;;
50585;SDS011;36542;51.700;8.846;2023-07-29T09:11:13;12.90;;;11.52;;
50585;SDS011;36542;51.700;8.846;2023-07-29T09:13:41;11.73;;;10.68;;
50585;SDS011;36542;51.700;8.846;2023-07-29T09:16:07;12.45;;;11.25;;
50585;SDS011;36542;51.700;8.846;2023-07-29T09:18:34;12.93;;;11.73;;
50585;SDS011;36542;51.700;8.846;2023-07-29T09:21:00;14.93;;;13.45;;
50585;SDS011;36542;51.700;8.846;2023-07-29T09:23:28;14.05;;;12.75;;
50585;SDS011;36542;51.700;8.846;2023-07-29T09:26:03;13.77;;;12.52;;
50585;SDS011;36542;51.700;8.846;2023-07-29T09:28:32;14.23;;;12.82;;
50585;SDS011;36542;51.700;8.846;2023-07-29T09:30:59;17.27;;;13.27;;
50585;SDS011;36542;51.700;8.846;2023-07-29T09:33:25;14.05;;;12.68;;
50585;SDS011;36542;51.700;8.846;2023-07-29T09:35:51;12.35;;;11.27;;
50585;SDS011;36542;51.700;8.846;2023-07-29T09:38:17;13.02;;;11.73;;
50585;SDS011;36542;51.700;8.846;2023-07-29T09:40:42;12.65;;;11.40;;
50585;SDS011;36542;51.700;8.846;2023-07-29T09:43:10;11.55;;;10.60;;
50585;SDS011;36542;51.700;8.846;2023-07-29T09:45:36;14.50;;;9.25;;
50585;SDS011;36542;51.700;8.846;2023-07-29T09:48:03;7.40;;;6.80;;
50585;SDS011;36542;51.700;8.846;2023-07-29T09:50:35;6.55;;;6.00;;
50585;SDS011;36542;51.700;8.846;2023-07-29T09:53:01;6.00;;;5.50;;
50585;SDS011;36542;51.700;8.846;2023-07-29T09:55:28;5.25;;;4.75;;
50585;SDS011;36542;51.700;8.846;2023-07-29T09:57:57;5.80;;;4.20;;
50585;SDS011;36542;51.700;8.846;2023-07-29T10:00:26;5.13;;;4.68;;
50585;SDS011;36542;51.700;8.846;2023-07-29T10:02:56;4.82;;;3.90;;
50585;SDS011;36542;51.700;8.846;2023-07-29T10:05:25;3.90;;;3.50;;
50585;SDS011;36542;51.700;8.846;2023-07-29T10:07:51;3.60;;;3.30;;
50585;SDS011;36542;51.700;8.846;2023-07-29T10:10:18;3.25;;;2.95;;
50585;SDS011;36542;51.700;8.846;2023-07-29T10:12:45;3.20;;;3.00;;
50585;SDS011;36542;51.700;8.846;2023-07-29T10:15:11;3.35;;;2.95;;
50585;SDS011;36542;51.700;8.846;2023-07-29T10:17:37;2.70;;;2.40;;
50585;SDS011;36542;51.700;8.846;2023-07-29T10:20:04;4.18;;;2.80;;
50585;SDS011;36542;51.700;8.846;2023-07-29T10:22:38;4.47;;;2.63;;
50585;SDS011;36542;51.700;8.846;2023-07-29T10:25:09;4.25;;;2.83;;
50585;SDS011;36542;51.700;8.846;2023-07-29T10:30:11;2.85;;;2.05;;
50585;SDS011;36542;51.700;8.846;2023-07-29T10:32:38;2.10;;;1.90;;
50585;SDS011;36542;51.700;8.846;2023-07-29T10:35:06;6.57;;;1.90;;
50585;SDS011;36542;51.700;8.846;2023-07-29T10:37:32;2.20;;;1.50;;
50585;SDS011;36542;51.700;8.846;2023-07-29T10:39:58;3.03;;;1.60;;
50585;SDS011;36542;51.700;8.846;2023-07-29T10:42:23;1.40;;;1.30;;
50585;SDS011;36542;51.700;8.846;2023-07-29T10:44:49;1.50;;;1.35;;
50585;SDS011;36542;51.700;8.846;2023-07-29T10:47:26;2.00;;;1.45;;
50585;SDS011;36542;51.700;8.846;2023-07-29T10:49:57;1.63;;;1.52;;
50585;SDS011;36542;51.700;8.846;2023-07-29T10:52:42;1.27;;;1.17;;
50585;SDS011;36542;51.700;8.846;2023-07-29T10:55:30;1.40;;;1.30;;
50585;SDS011;36542;51.700;8.846;2023-07-29T10:58:08;1.65;;;1.17;;
50585;SDS011;36542;51.700;8.846;2023-07-29T11:00:37;3.17;;;1.30;;
50585;SDS011;36542;51.700;8.846;2023-07-29T11:03:06;2.47;;;0.98;;
50585;SDS011;36542;51.700;8.846;2023-07-29T11:05:43;1.80;;;1.40;;
50585;SDS011;36542;51.700;8.846;2023-07-29T11:08:20;1.00;;;1.00;;
50585;SDS011;36542;51.700;8.846;2023-07-29T11:11:05;1.67;;;1.40;;
50585;SDS011;36542;51.700;8.846;2023-07-29T11:13:33;2.17;;;1.30;;
50585;SDS011;36542;51.700;8.846;2023-07-29T11:16:00;2.03;;;1.30;;
50585;SDS011;36542;51.700;8.846;2023-07-29T11:18:33;1.30;;;1.20;;
50585;SDS011;36542;51.700;8.846;2023-07-29T11:21:00;2.05;;;1.55;;
50585;SDS011;36542;51.700;8.846;2023-07-29T11:23:28;2.10;;;1.10;;
50585;SDS011;36542;51.700;8.846;2023-07-29T11:25:58;1.45;;;1.30;;
50585;SDS011;36542;51.700;8.846;2023-07-29T11:28:24;1.27;;;1.17;;
50585;SDS011;36542;51.700;8.846;2023-07-29T11:30:51;1.40;;;1.20;;
50585;SDS011;36542;51.700;8.846;2023-07-29T11:33:20;1.83;;;1.25;;
50585;SDS011;36542;51.700;8.846;2023-07-29T11:35:49;2.60;;;1.38;;
50585;SDS011;36542;51.700;8.846;2023-07-29T11:38:15;1.58;;;1.35;;
50585;SDS011;36542;51.700;8.846;2023-07-29T11:40:41;3.92;;;1.60;;
50585;SDS011;36542;51.700;8.846;2023-07-29T11:43:07;2.00;;;1.58;;
50585;SDS011;36542;51.700;8.846;2023-07-29T11:45:32;1.13;;;1.10;;
50585;SDS011;36542;51.700;8.846;2023-07-29T11:47:58;1.58;;;1.13;;
50585;SDS011;36542;51.700;8.846;2023-07-29T11:50:25;1.50;;;1.05;;
50585;SDS011;36542;51.700;8.846;2023-07-29T11:52:51;4.00;;;1.38;;
50585;SDS011;36542;51.700;8.846;2023-07-29T11:55:17;2.25;;;1.30;;
50585;SDS011;36542;51.700;8.846;2023-07-29T11:57:44;2.63;;;1.40;;
50585;SDS011;36542;51.700;8.846;2023-07-29T12:00:15;1.42;;;1.33;;
50585;SDS011;36542;51.700;8.846;2023-07-29T12:02:43;2.05;;;1.48;;
50585;SDS011;36542;51.700;8.846;2023-07-29T12:05:10;1.10;;;1.10;;
50585;SDS011;36542;51.700;8.846;2023-07-29T12:07:41;2.47;;;1.52;;
50585;SDS011;36542;51.700;8.846;2023-07-29T12:10:07;1.50;;;1.40;;
50585;SDS011;36542;51.700;8.846;2023-07-29T12:12:37;2.80;;;1.30;;
50585;SDS011;36542;51.700;8.846;2023-07-29T12:15:10;1.73;;;1.63;;
50585;SDS011;36542;51.700;8.846;2023-07-29T12:17:41;1.58;;;1.48;;
50585;SDS011;36542;51.700;8.846;2023-07-29T12:20:10;1.88;;;1.70;;
50585;SDS011;36542;51.700;8.846;2023-07-29T12:22:36;1.40;;;1.27;;
50585;SDS011;36542;51.700;8.846;2023-07-29T12:25:02;2.03;;;1.75;;
50585;SDS011;36542;51.700;8.846;2023-07-29T12:27:29;1.70;;;1.60;;
50585;SDS011;36542;51.700;8.846;2023-07-29T12:29:55;1.98;;;1.88;;
50585;SDS011;36542;51.700;8.846;2023-07-29T12:32:21;1.30;;;1.30;;
50585;SDS011;36542;51.700;8.846;2023-07-29T12:34:52;2.08;;;1.60;;
50585;SDS011;36542;51.700;8.846;2023-07-29T12:37:18;1.65;;;1.42;;
50585;SDS011;36542;51.700;8.846;2023-07-29T12:39:44;1.95;;;1.67;;
50585;SDS011;36542;51.700;8.846;2023-07-29T12:42:09;2.53;;;1.85;;
50585;SDS011;36542;51.700;8.846;2023-07-29T12:44:36;1.80;;;1.70;;
50585;SDS011;36542;51.700;8.846;2023-07-29T12:47:02;3.78;;;2.00;;
50585;SDS011;36542;51.700;8.846;2023-07-29T12:49:30;3.53;;;1.95;;
50585;SDS011;36542;51.700;8.846;2023-07-29T12:51:56;2.95;;;1.77;;
50585;SDS011;36542;51.700;8.846;2023-07-29T12:54:22;2.80;;;2.22;;
50585;SDS011;36542;51.700;8.846;2023-07-29T12:56:48;2.63;;;1.92;;
50585;SDS011;36542;51.700;8.846;2023-07-29T12:59:13;1.90;;;1.80;;
50585;SDS011;36542;51.700;8.846;2023-07-29T13:01:39;2.65;;;1.75;;
50585;SDS011;36542;51.700;8.846;2023-07-29T13:04:05;2.33;;;2.00;;
50585;SDS011;36542;51.700;8.846;2023-07-29T13:06:31;4.10;;;1.65;;
50585;SDS011;36542;51.700;8.846;2023-07-29T13:08:56;1.42;;;1.33;;
50585;SDS011;36542;51.700;8.846;2023-07-29T13:11:22;4.07;;;1.70;;
50585;SDS011;36542;51.700;8.846;2023-07-29T13:13:47;1.63;;;1.52;;
50585;SDS011;36542;51.700;8.846;2023-07-29T13:16:13;1.60;;;1.50;;
50585;SDS011;36542;51.700;8.846;2023-07-29T13:18:38;1.50;;;1.40;;
50585;SDS011;36542;51.700;8.846;2023-07-29T13:21:04;1.40;;;1.30;;
50585;SDS011;36542;51.700;8.846;2023-07-29T13:23:30;1.50;;;1.40;;
50585;SDS011;36542;51.700;8.846;2023-07-29T13:25:56;1.83;;;1.73;;
50585;SDS011;36542;51.700;8.846;2023-07-29T13:28:22;1.90;;;1.80;;
50585;SDS011;36542;51.700;8.846;2023-07-29T13:30:48;2.10;;;1.60;;
50585;SDS011;36542;51.700;8.846;2023-07-29T13:33:14;1.98;;;1.88;;
50585;SDS011;36542;51.700;8.846;2023-07-29T13:35:39;2.25;;;2.05;;
50585;SDS011;36542;51.700;8.846;2023-07-29T13:38:05;2.42;;;2.22;;
50585;SDS011;36542;51.700;8.846;2023-07-29T13:40:30;2.17;;;1.95;;
50585;SDS011;36542;51.700;8.846;2023-07-29T13:42:56;2.65;;;2.20;;
50585;SDS011;36542;51.700;8.846;2023-07-29T13:45:22;2.33;;;2.13;;
50585;SDS011;36542;51.700;8.846;2023-07-29T13:47:48;3.75;;;2.13;;
50585;SDS011;36542;51.700;8.846;2023-07-29T13:50:15;1.92;;;1.83;;
50585;SDS011;36542;51.700;8.846;2023-07-29T13:52:41;2.55;;;1.90;;
50585;SDS011;36542;51.700;8.846;2023-07-29T13:55:06;3.42;;;2.10;;
50585;SDS011;36542;51.700;8.846;2023-07-29T13:57:32;2.20;;;2.10;;
50585;SDS011;36542;51.700;8.846;2023-07-29T13:59:57;2.10;;;2.00;;
50585;SDS011;36542;51.700;8.846;2023-07-29T14:02:23;2.33;;;2.15;;
50585;SDS011;36542;51.700;8.846;2023-07-29T14:04:51;1.85;;;1.75;;
50585;SDS011;36542;51.700;8.846;2023-07-29T14:07:16;1.73;;;1.60;;
50585;SDS011;36542;51.700;8.846;2023-07-29T14:09:42;1.98;;;1.77;;
50585;SDS011;36542;51.700;8.846;2023-07-29T14:12:08;2.20;;;2.00;;
50585;SDS011;36542;51.700;8.846;2023-07-29T14:14:37;1.60;;;1.50;;
50585;SDS011;36542;51.700;8.846;2023-07-29T14:17:03;2.25;;;1.92;;
50585;SDS011;36542;51.700;8.846;2023-07-29T14:19:29;1.92;;;1.83;;
50585;SDS011;36542;51.700;8.846;2023-07-29T14:21:54;1.88;;;1.50;;
50585;SDS011;36542;51.700;8.846;2023-07-29T14:24:20;2.25;;;1.70;;
50585;SDS011;36542;51.700;8.846;2023-07-29T14:26:46;2.63;;;1.50;;
50585;SDS011;36542;51.700;8.846;2023-07-29T14:29:12;1.70;;;1.50;;
50585;SDS011;36542;51.700;8.846;2023-07-29T14:31:37;2.63;;;1.83;;
50585;SDS011;36542;51.700;8.846;2023-07-29T14:34:03;3.50;;;2.10;;
50585;SDS011;36542;51.700;8.846;2023-07-29T14:36:28;1.80;;;1.70;;
50585;SDS011;36542;51.700;8.846;2023-07-29T14:38:54;3.17;;;1.88;;
50585;SDS011;36542;51.700;8.846;2023-07-29T14:41:19;1.90;;;1.80;;
50585;SDS011;36542;51.700;8.846;2023-07-29T14:43:45;2.05;;;1.48;;
50585;SDS011;36542;51.700;8.846;2023-07-29T14:46:10;1.88;;;1.77;;
50585;SDS011;36542;51.700;8.846;2023-07-29T14:48:36;2.38;;;1.85;;
50585;SDS011;36542;51.700;8.846;2023-07-29T14:51:01;1.65;;;1.50;;